Terminal Aerodrome Forecast
Issued by NWS Sioux Falls, SD

Home | Current Version | Previous Version | Graphics & Text | Print | Product List | Glossary On
Versions: 1 2 3 4 5 6 7 8 9 10 11 12 13 14 15 16
000
FTUS43 KFSD 271740
TAFHON
TAF
KHON 271740Z 2718/2818 16012KT P6SM SCT040 OVC080
     FM272000 16012KT 2SM -SN OVC030
      TEMPO 2721/2723 3/4SM -SN OVC015
     FM280000 13008KT 4SM -SN OVC025
     FM280300 12008KT P6SM BKN030
     FM281000 12010KT P6SM BKN050
     FM281500 15014G20KT P6SM SCT100 BKN250=

USA.gov is the U.S. government's official web portal to all federal, state and local government web resources and services.